createdAt,value
2023-05-14T00:05:22.861Z,95.1404
2023-05-14T00:06:23.772Z,95.5461
2023-05-14T00:07:24.662Z,95.7499
2023-05-14T00:08:25.549Z,95.3755
2023-05-14T00:09:26.401Z,94.5320
2023-05-14T00:10:27.265Z,95.1183
2023-05-14T00:11:28.127Z,95.9122
2023-05-14T00:12:29.037Z,96.2105
2023-05-14T00:13:29.927Z,96.3210
2023-05-14T00:14:30.764Z,95.6675
2023-05-14T00:15:33.622Z,95.2995
2023-05-14T00:16:32.436Z,95.1070
2023-05-14T00:17:34.390Z,95.3173
2023-05-14T00:18:36.221Z,95.3671
2023-05-14T00:19:41.105Z,95.4075
2023-05-14T00:21:41.372Z,95.8116
2023-05-14T00:22:43.924Z,95.8652
2023-05-14T00:23:44.799Z,95.7998
2023-05-14T00:24:46.294Z,95.4168
2023-05-14T00:25:47.973Z,95.2184
2023-05-14T00:26:48.871Z,95.1024
2023-05-14T00:27:50.371Z,95.4386
2023-05-14T00:28:51.905Z,95.7820
2023-05-14T00:29:53.236Z,95.8789
2023-05-14T00:30:54.750Z,96.0461
2023-05-14T00:31:55.664Z,96.1400
2023-05-14T00:32:56.581Z,95.8228
2023-05-14T00:33:58.075Z,95.6768
2023-05-14T00:34:59.562Z,95.8564
2023-05-14T00:36:00.441Z,95.8790
2023-05-14T00:37:01.364Z,96.1258
2023-05-14T00:38:02.602Z,95.8192
2023-05-14T00:39:03.484Z,95.4875
2023-05-14T00:40:04.625Z,95.4705
2023-05-14T00:41:05.555Z,94.9629
2023-05-14T00:42:06.488Z,95.1362
2023-05-14T00:43:07.346Z,95.2709
2023-05-14T00:44:08.244Z,95.4699
2023-05-14T00:45:09.087Z,95.6644
2023-05-14T00:46:10.225Z,95.7454
2023-05-14T00:47:11.109Z,95.7974
2023-05-14T00:48:11.962Z,95.6078
2023-05-14T00:49:12.827Z,95.4805
2023-05-14T00:50:13.709Z,95.7138
2023-05-14T00:51:14.581Z,95.7873
2023-05-14T00:52:16.066Z,95.7057
2023-05-14T00:53:17.572Z,95.8170
2023-05-14T00:54:18.455Z,96.1220
2023-05-14T00:55:20.803Z,95.6748
2023-05-14T00:56:22.417Z,95.5642
2023-05-14T00:57:23.306Z,95.7147
2023-05-14T00:58:24.168Z,95.6724
2023-05-14T01:00:26.144Z,95.1088
2023-05-14T01:01:27.133Z,95.0203
2023-05-14T01:02:28.090Z,95.1462
2023-05-14T01:03:30.080Z,95.0112
2023-05-14T01:04:31.035Z,95.1141
2023-05-14T01:05:31.924Z,95.2172
2023-05-14T01:06:33.754Z,95.1695
2023-05-14T01:07:34.650Z,95.0443
2023-05-14T01:08:36.162Z,95.0275
2023-05-14T01:09:37.053Z,95.1340
2023-05-14T01:10:37.967Z,94.7625
2023-05-14T01:11:39.429Z,94.6768
2023-05-14T01:12:40.331Z,95.2324
2023-05-14T01:13:41.245Z,95.0764
2023-05-14T01:14:42.181Z,95.6465
2023-05-14T01:15:43.387Z,96.0644
2023-05-14T01:16:44.292Z,95.7531
2023-05-14T01:17:46.021Z,95.3500
2023-05-14T01:18:47.678Z,95.6320
2023-05-14T01:19:48.597Z,94.9203
2023-05-14T01:20:50.137Z,94.3816
2023-05-14T01:21:51.108Z,94.4236
2023-05-14T01:22:51.992Z,94.6335
2023-05-14T01:23:52.930Z,94.3999
2023-05-14T01:24:54.904Z,94.3913
2023-05-14T01:25:55.844Z,94.6801
2023-05-14T01:26:57.316Z,94.8092
2023-05-14T01:27:58.841Z,94.9833
2023-05-14T01:29:00.499Z,95.0133
2023-05-14T01:30:01.396Z,95.3431
2023-05-14T01:31:03.160Z,95.5054
2023-05-14T01:32:04.896Z,95.3844
2023-05-14T01:33:06.006Z,95.4752
2023-05-14T01:34:07.831Z,94.9003
2023-05-14T01:35:09.395Z,94.6580
2023-05-14T01:36:10.293Z,94.6256
2023-05-14T01:37:11.217Z,94.7468
2023-05-14T01:38:12.152Z,94.7978
2023-05-14T01:39:13.100Z,94.8526
2023-05-14T01:41:14.809Z,95.3892
2023-05-14T01:42:15.759Z,95.3158
2023-05-14T01:43:16.720Z,95.7180
2023-05-14T01:44:17.675Z,96.0474
2023-05-14T01:45:18.609Z,95.7704
2023-05-14T01:46:19.785Z,94.9475
2023-05-14T01:47:20.762Z,94.9065
2023-05-14T01:48:21.744Z,95.0926
2023-05-14T01:49:22.706Z,95.3859
2023-05-14T01:50:23.740Z,95.7286
2023-05-14T01:51:24.725Z,95.4054
2023-05-14T01:52:25.630Z,95.3801
2023-05-14T01:53:26.549Z,95.3593
2023-05-14T01:54:27.457Z,95.6863
2023-05-14T01:55:28.553Z,95.5170
2023-05-14T01:56:29.536Z,95.4719
2023-05-14T01:57:30.428Z,95.2432
2023-05-14T01:59:32.096Z,95.6402
2023-05-14T02:00:33.027Z,95.7820
2023-05-14T02:01:34.449Z,95.8625
2023-05-14T02:02:35.452Z,95.9876
2023-05-14T02:03:36.416Z,96.2011
2023-05-14T02:04:37.354Z,95.7243
2023-05-14T02:05:38.278Z,95.7713
2023-05-14T02:06:39.204Z,96.1788
2023-05-14T02:07:40.121Z,96.5502
2023-05-14T02:08:41.109Z,96.7660
2023-05-14T02:09:42.012Z,96.5861
2023-05-14T02:10:42.972Z,96.3057
2023-05-14T02:11:43.923Z,95.8818
2023-05-14T02:12:45.009Z,95.6256
2023-05-14T02:13:45.906Z,95.4961
2023-05-14T02:14:46.861Z,96.1561
2023-05-14T02:15:47.819Z,96.1698
2023-05-14T02:16:48.743Z,95.8118
2023-05-14T02:17:49.697Z,95.8896
2023-05-14T02:18:50.704Z,96.0871
2023-05-14T02:19:51.672Z,96.1406
2023-05-14T02:20:52.615Z,96.2319
2023-05-14T02:21:53.537Z,96.2444
2023-05-14T02:22:54.497Z,95.5578
2023-05-14T02:23:55.432Z,95.8473
2023-05-14T02:24:56.362Z,95.9532
2023-05-14T02:25:57.486Z,96.1480
2023-05-14T02:27:00.196Z,96.1989
2023-05-14T02:28:01.081Z,96.2555
2023-05-14T02:29:02.249Z,96.5827
2023-05-14T02:30:03.137Z,96.3472
2023-05-14T02:31:04.096Z,95.6401
2023-05-14T02:32:05.772Z,95.6469
2023-05-14T02:33:07.456Z,95.7993
2023-05-14T02:34:09.029Z,95.6012
2023-05-14T02:35:10.327Z,95.5721
2023-05-14T02:36:11.870Z,95.3853
2023-05-14T02:37:13.412Z,95.5908
2023-05-14T02:39:15.789Z,95.8841
2023-05-14T02:40:16.720Z,96.0899
2023-05-14T02:41:18.323Z,96.2087
2023-05-14T02:42:19.323Z,96.6024
2023-05-14T02:43:20.282Z,96.7191
2023-05-14T02:52:27.987Z,97.3262
2023-05-14T02:53:28.933Z,97.2801
2023-05-14T02:54:29.860Z,97.1204
2023-05-14T02:55:30.829Z,97.0055
2023-05-14T02:56:31.764Z,97.2625
2023-05-14T02:58:34.808Z,97.3012
2023-05-14T02:59:35.956Z,97.0003
2023-05-14T03:00:37.126Z,97.0300
2023-05-14T03:01:38.658Z,97.0311
2023-05-14T03:07:43.740Z,97.4751
2023-05-14T03:08:44.654Z,97.4430
2023-05-14T03:12:49.137Z,97.1194
2023-05-14T03:13:50.076Z,97.0786
2023-05-14T03:14:51.123Z,96.9154
2023-05-14T03:15:52.643Z,96.6980
2023-05-14T03:16:53.798Z,97.0921
2023-05-14T03:17:54.763Z,97.2799
2023-05-14T03:18:55.952Z,97.3817
2023-05-14T03:19:56.867Z,97.4490
2023-05-14T03:21:59.511Z,97.2840
2023-05-14T03:23:00.453Z,97.6226
2023-05-14T03:24:01.372Z,97.7780
2023-05-14T03:25:03.401Z,97.7963
2023-05-14T03:26:04.541Z,97.8039
2023-05-14T03:27:05.482Z,97.7954
2023-05-14T03:28:06.467Z,97.9192
2023-05-14T03:29:07.405Z,97.9941
2023-05-14T03:30:08.379Z,98.1438
2023-05-14T03:31:09.351Z,98.2714
2023-05-14T03:32:10.266Z,98.2950
2023-05-14T03:33:11.175Z,98.4006
2023-05-14T03:34:12.159Z,98.5531
2023-05-14T03:35:13.082Z,98.6505
2023-05-14T03:36:14.036Z,98.7341
2023-05-14T03:37:14.936Z,98.7481
2023-05-14T03:38:15.922Z,98.8046
2023-05-14T03:39:16.839Z,98.9063
2023-05-14T03:40:17.782Z,98.9322
2023-05-14T03:42:19.540Z,98.9994
2023-05-14T03:43:20.532Z,98.9537
2023-05-14T03:44:21.464Z,98.8384
2023-05-14T03:45:22.415Z,98.6549
2023-05-14T03:46:23.598Z,98.6304
2023-05-14T03:47:24.500Z,98.7110
2023-05-14T03:48:25.560Z,98.8284
2023-05-14T03:49:26.610Z,98.8924
2023-05-14T03:50:27.619Z,98.9822
2023-05-14T03:51:28.554Z,99.0443
2023-05-14T03:52:29.761Z,99.1040
2023-05-14T03:53:30.717Z,99.1400
2023-05-14T03:54:32.881Z,99.1804
2023-05-14T03:55:34.452Z,99.2317
2023-05-14T03:56:36.070Z,99.2665
2023-05-14T03:57:37.037Z,99.2676
2023-05-14T03:58:38.567Z,99.2430
2023-05-14T03:59:40.135Z,99.2075
2023-05-14T04:00:41.086Z,99.0135
2023-05-14T04:01:43.403Z,98.8764
2023-05-14T04:02:44.785Z,98.7331
2023-05-14T04:03:46.182Z,98.6465
2023-05-14T04:05:48.110Z,98.7536
2023-05-14T04:06:49.021Z,98.7706
2023-05-14T04:09:51.815Z,98.4475
2023-05-14T04:13:55.688Z,98.0407
2023-05-14T04:14:56.655Z,98.1890
2023-05-14T04:15:57.641Z,98.1737
2023-05-14T04:17:00.104Z,97.7638
2023-05-14T04:18:01.236Z,97.6920
2023-05-14T04:19:02.271Z,97.7058
2023-05-14T04:20:03.982Z,97.0490
2023-05-14T04:22:06.691Z,96.7785
2023-05-14T04:23:08.212Z,96.5693
2023-05-14T04:25:10.623Z,97.3143
2023-05-14T04:26:11.556Z,97.2557
2023-05-14T04:27:12.560Z,97.0205
2023-05-14T04:28:14.733Z,96.6280
2023-05-14T04:29:16.283Z,96.3887
2023-05-14T04:30:17.828Z,96.2651
2023-05-14T04:31:18.853Z,95.4542
2023-05-14T04:32:20.458Z,95.5781
2023-05-14T04:33:22.049Z,95.9186
2023-05-14T04:34:22.963Z,95.6776
2023-05-14T04:35:25.258Z,96.1901
2023-05-14T04:36:26.896Z,96.2276
2023-05-14T04:37:27.850Z,95.6709
2023-05-14T04:38:29.432Z,95.5907
2023-05-14T04:39:30.333Z,96.0361
2023-05-14T04:40:31.220Z,96.2312
2023-05-14T04:41:32.932Z,95.8291
2023-05-14T04:42:34.480Z,95.7047
2023-05-14T04:43:35.977Z,95.5738
2023-05-14T04:44:36.884Z,95.0032
2023-05-14T04:45:38.430Z,94.7924
2023-05-14T04:46:39.407Z,94.3263
2023-05-14T04:47:40.389Z,94.7537
2023-05-14T04:48:41.669Z,94.9987
2023-05-14T04:49:43.182Z,94.2545
2023-05-14T04:50:45.227Z,93.9626
2023-05-14T04:51:46.157Z,93.5023
2023-05-14T04:52:47.101Z,93.7796
2023-05-14T04:53:48.005Z,94.3910
2023-05-14T04:54:48.967Z,94.8353
2023-05-14T04:55:49.886Z,94.9264
2023-05-14T04:56:50.812Z,94.6899
2023-05-14T04:57:51.728Z,94.8387
2023-05-14T04:58:52.663Z,94.6888
2023-05-14T04:59:53.575Z,94.3860
2023-05-14T05:00:54.512Z,94.1615
2023-05-14T05:01:55.454Z,94.3260
2023-05-14T05:02:56.405Z,94.5764
2023-05-14T05:03:57.315Z,94.6436
2023-05-14T05:04:58.260Z,93.9922
2023-05-14T05:05:59.200Z,93.1244
2023-05-14T05:07:00.130Z,93.8241
2023-05-14T05:08:01.046Z,93.1436
2023-05-14T05:09:02.239Z,92.1074
2023-05-14T05:10:03.328Z,91.9680
2023-05-14T05:11:04.914Z,92.1048
2023-05-14T05:12:06.642Z,92.5005
2023-05-14T05:13:08.211Z,91.6644
2023-05-14T05:14:09.225Z,91.2043
2023-05-14T05:15:10.831Z,92.0349
2023-05-14T05:16:12.409Z,92.4315
2023-05-14T05:17:14.430Z,92.4482
2023-05-14T05:18:15.894Z,92.0850
2023-05-14T05:19:16.992Z,91.5199
2023-05-14T05:20:18.520Z,91.5026
2023-05-14T05:21:20.335Z,91.6813
2023-05-14T05:22:21.240Z,91.9594
2023-05-14T05:23:22.131Z,90.8594
2023-05-14T05:24:23.075Z,91.2077
2023-05-14T05:25:24.009Z,91.9488
2023-05-14T05:26:24.928Z,91.2375
2023-05-14T05:27:25.845Z,90.7514
2023-05-14T05:28:26.834Z,90.5413
2023-05-14T05:29:27.729Z,90.0996
2023-05-14T05:30:28.676Z,90.4169
2023-05-14T05:31:30.780Z,90.6153
2023-05-14T05:32:31.792Z,90.0928
2023-05-14T05:33:33.329Z,89.8181
2023-05-14T05:34:34.979Z,89.8573
2023-05-14T05:36:37.331Z,89.4323
2023-05-14T05:37:38.891Z,89.1606
2023-05-14T05:38:39.793Z,89.6901
2023-05-14T05:39:40.757Z,89.8830
2023-05-14T05:40:42.246Z,90.0346
2023-05-14T05:41:43.167Z,90.6557
2023-05-14T05:42:44.115Z,90.7608
2023-05-14T05:43:45.656Z,89.4251
2023-05-14T05:44:47.193Z,89.3985
2023-05-14T05:45:48.147Z,89.3815
2023-05-14T05:47:49.856Z,89.9934
2023-05-14T05:48:50.764Z,88.9492
2023-05-14T05:50:53.333Z,88.2587
2023-05-14T05:51:54.244Z,88.1528
2023-05-14T05:52:55.160Z,87.8225
2023-05-14T05:54:57.309Z,87.5416
2023-05-14T05:55:58.230Z,87.1130
2023-05-14T05:56:59.107Z,86.9522
2023-05-14T05:59:01.789Z,85.6875
2023-05-14T06:00:03.973Z,85.7985
2023-05-14T06:01:04.873Z,86.2526
2023-05-14T06:02:05.808Z,87.2173
2023-05-14T06:03:06.746Z,88.4795
2023-05-14T06:04:07.666Z,88.4051
2023-05-14T06:05:08.595Z,87.8058
2023-05-14T06:06:09.547Z,88.1300
2023-05-14T06:07:10.587Z,87.6562
2023-05-14T06:08:11.740Z,88.7385
2023-05-14T06:09:12.661Z,88.5521
2023-05-14T06:10:13.600Z,89.6060
2023-05-14T06:11:15.107Z,90.1643
2023-05-14T06:12:16.637Z,90.7158
2023-05-14T06:13:18.530Z,91.3590
2023-05-14T06:14:19.444Z,90.6643
2023-05-14T06:16:21.282Z,91.0685
2023-05-14T06:17:22.294Z,91.1036
2023-05-14T06:19:24.604Z,90.9500
2023-05-14T06:20:26.146Z,90.5725
2023-05-14T06:21:27.169Z,90.5156
2023-05-14T06:22:28.684Z,90.6189
2023-05-14T06:23:30.236Z,91.3641
2023-05-14T06:24:31.816Z,91.1218
2023-05-14T06:25:33.813Z,91.3877
2023-05-14T06:26:34.694Z,91.9419
2023-05-14T06:27:36.250Z,91.6593
2023-05-14T06:28:37.703Z,91.6771
2023-05-14T06:29:38.590Z,91.6224
2023-05-14T06:30:39.481Z,91.9703
2023-05-14T06:31:41.104Z,91.3606
2023-05-14T06:32:42.672Z,91.2689
2023-05-14T06:33:43.575Z,91.3711
2023-05-14T06:34:45.142Z,90.9719
2023-05-14T06:35:46.673Z,90.6501
2023-05-14T06:36:47.596Z,90.3779
2023-05-14T06:37:48.477Z,90.1026
2023-05-14T06:38:50.238Z,90.2445
2023-05-14T06:39:51.158Z,90.2807
2023-05-14T06:40:52.118Z,90.6259
2023-05-14T06:41:53.745Z,90.3728
2023-05-14T06:42:54.700Z,91.2728
2023-05-14T06:43:54.997Z,91.3195
2023-05-14T06:45:01.527Z,90.8903
2023-05-14T06:46:02.527Z,91.2527
2023-05-14T06:51:06.807Z,91.0843
2023-05-14T06:52:24.528Z,90.3927
2023-05-14T06:53:08.921Z,91.0063
2023-05-14T06:54:09.890Z,91.2508
2023-05-14T06:55:10.818Z,91.5379
2023-05-14T06:56:12.060Z,91.1331
2023-05-14T06:57:13.718Z,90.9918
2023-05-14T06:58:14.666Z,90.8857
2023-05-14T06:59:16.214Z,91.3596
2023-05-14T07:00:17.827Z,91.2549
2023-05-14T07:01:19.857Z,90.0226
2023-05-14T07:03:22.276Z,90.9771
2023-05-14T07:04:23.269Z,90.6163
2023-05-14T07:05:24.228Z,91.0806
2023-05-14T07:07:25.954Z,92.3350
2023-05-14T07:08:26.893Z,92.8480
2023-05-14T07:10:28.883Z,92.6127
2023-05-14T07:11:29.778Z,92.7365
2023-05-14T07:12:30.740Z,92.5138
2023-05-14T07:14:32.507Z,92.4519
2023-05-14T07:15:33.437Z,92.4831
2023-05-14T07:16:34.393Z,92.7897
2023-05-14T07:17:35.450Z,92.3892
2023-05-14T07:18:36.409Z,92.9634
2023-05-14T07:19:37.373Z,93.1039
2023-05-14T07:20:38.344Z,93.2024
2023-05-14T07:21:39.310Z,93.8370
2023-05-14T07:22:40.319Z,94.1368
2023-05-14T07:23:41.282Z,94.2055
2023-05-14T07:24:42.247Z,93.8257
2023-05-14T07:25:43.210Z,93.5337
2023-05-14T07:26:44.190Z,93.2636
2023-05-14T07:27:45.164Z,93.2301
2023-05-14T07:28:46.093Z,93.1302
2023-05-14T07:29:47.015Z,92.0024
2023-05-14T07:30:47.915Z,90.3862
2023-05-14T07:31:49.023Z,89.7453
2023-05-14T07:32:50.012Z,89.7987
2023-05-14T07:33:50.925Z,89.5439
2023-05-14T07:34:51.852Z,88.7683
2023-05-14T07:35:52.791Z,88.4629
2023-05-14T07:36:54.342Z,86.5058
2023-05-14T07:37:55.870Z,87.8433
2023-05-14T07:38:57.117Z,87.2744
2023-05-14T07:39:58.642Z,88.5912
2023-05-14T07:40:59.547Z,89.2038
2023-05-14T07:43:01.952Z,89.1056
2023-05-14T07:44:02.846Z,87.9688
2023-05-14T07:45:03.778Z,88.0406
2023-05-14T07:46:05.228Z,86.4746
2023-05-14T07:47:06.162Z,84.8551
2023-05-14T07:48:07.218Z,82.8132
2023-05-14T07:49:08.426Z,83.0917
2023-05-14T07:50:09.922Z,80.9852
2023-05-14T07:51:10.858Z,80.8658
2023-05-14T07:52:23.275Z,81.0236
2023-05-14T07:56:16.961Z,76.9055
2023-05-14T07:57:17.869Z,77.7114
2023-05-14T07:58:19.419Z,79.3808
2023-05-14T07:59:20.967Z,80.5755
2023-05-14T08:00:22.054Z,78.5224
2023-05-14T08:01:23.784Z,80.6857
2023-05-14T08:02:24.768Z,83.2948
2023-05-14T08:03:42.947Z,83.6165
2023-05-14T08:04:44.487Z,84.2202
2023-05-14T08:05:45.436Z,82.8249
2023-05-14T08:06:46.290Z,79.9141
2023-05-14T08:07:47.806Z,79.2271
2023-05-14T08:08:48.730Z,79.9746
2023-05-14T08:09:50.175Z,83.2923
2023-05-14T08:10:51.152Z,80.8023
2023-05-14T08:11:52.415Z,80.3715
2023-05-14T08:12:53.512Z,78.8991
2023-05-14T08:13:54.392Z,77.7167
2023-05-14T08:14:55.300Z,78.8211
2023-05-14T08:15:56.868Z,78.8942
2023-05-14T08:16:57.798Z,80.0515
2023-05-14T08:17:58.833Z,80.9450
2023-05-14T08:19:00.354Z,82.5709
2023-05-14T08:20:01.829Z,83.1310
2023-05-14T08:21:03.654Z,83.2733
2023-05-14T08:22:05.227Z,78.7573
2023-05-14T08:23:06.151Z,79.3031
2023-05-14T08:24:07.741Z,79.3558
2023-05-14T08:25:09.201Z,76.4048
2023-05-14T08:26:10.206Z,79.0423
2023-05-14T08:27:11.790Z,83.3370
2023-05-14T08:28:35.593Z,83.2013
2023-05-14T08:29:16.126Z,84.1193
2023-05-14T08:30:14.697Z,83.5942
2023-05-14T08:31:15.641Z,83.1203
2023-05-14T08:32:23.347Z,82.9527
2023-05-14T08:34:21.002Z,82.9093
2023-05-14T08:35:28.820Z,81.4314
2023-05-14T08:38:26.449Z,83.0729
2023-05-14T08:39:27.349Z,83.4008
2023-05-14T08:40:28.213Z,82.3120
2023-05-14T08:41:29.123Z,79.8800
2023-05-14T08:42:30.590Z,80.2464
2023-05-14T08:43:31.489Z,80.7406
2023-05-14T08:44:32.352Z,80.7639
2023-05-14T08:45:33.918Z,79.6360
2023-05-14T08:46:34.840Z,80.8618
2023-05-14T08:47:35.771Z,79.7826
2023-05-14T08:48:36.658Z,79.2297
2023-05-14T08:49:37.571Z,79.9765
2023-05-14T08:53:43.801Z,78.9675
2023-05-14T08:54:44.727Z,77.2035
2023-05-14T08:55:45.596Z,77.5424
2023-05-14T08:56:47.192Z,76.4559
2023-05-14T08:57:48.412Z,75.9234
2023-05-14T08:58:50.408Z,78.3140
2023-05-14T08:59:51.263Z,77.8337
2023-05-14T09:00:52.157Z,75.8691
2023-05-14T09:02:05.048Z,71.2979
2023-05-14T09:02:55.391Z,74.3082
2023-05-14T09:03:57.010Z,73.1499
2023-05-14T09:04:57.882Z,73.6238
2023-05-14T09:06:00.196Z,71.3701
2023-05-14T09:07:01.976Z,70.6626
2023-05-14T09:08:03.438Z,70.7642
2023-05-14T09:10:04.986Z,76.1309
2023-05-14T09:11:05.849Z,73.9462
2023-05-14T09:12:07.217Z,73.6161
2023-05-14T09:13:08.404Z,74.9980
2023-05-14T09:14:09.192Z,70.4285
2023-05-14T09:15:10.788Z,73.7890
2023-05-14T09:16:12.429Z,73.5287
2023-05-14T09:17:13.290Z,74.7369
2023-05-14T09:18:14.149Z,74.9798
2023-05-14T09:19:15.137Z,74.3153
2023-05-14T09:20:16.029Z,74.7744
2023-05-14T09:21:16.872Z,77.9583
2023-05-14T09:22:17.683Z,78.0182
2023-05-14T09:23:19.120Z,77.9139
2023-05-14T09:24:19.987Z,78.5372
2023-05-14T09:25:21.445Z,79.2437
2023-05-14T09:26:22.334Z,80.2625
2023-05-14T09:27:23.774Z,79.3577
2023-05-14T09:28:25.319Z,79.6693
2023-05-14T09:29:26.173Z,78.2470
2023-05-14T09:30:27.343Z,79.2171
2023-05-14T09:31:28.312Z,79.6185
2023-05-14T09:32:29.233Z,80.1796
2023-05-14T09:33:30.735Z,80.5896
2023-05-14T09:34:31.628Z,80.7093
2023-05-14T09:35:32.672Z,81.2452
2023-05-14T09:36:34.182Z,80.9641
2023-05-14T09:37:35.366Z,79.2205
2023-05-14T09:38:36.251Z,77.8040
2023-05-14T09:39:37.173Z,79.3177
2023-05-14T09:40:38.059Z,79.9375
2023-05-14T09:41:38.946Z,77.8484
2023-05-14T09:43:41.349Z,77.8670
2023-05-14T09:44:42.224Z,77.2694
2023-05-14T09:46:44.969Z,77.1108
2023-05-14T09:47:47.177Z,77.4361
2023-05-14T09:48:48.241Z,77.2237
2023-05-14T09:49:49.731Z,77.1293
2023-05-14T09:50:50.686Z,76.2104
2023-05-14T09:51:52.513Z,75.4505
2023-05-14T09:52:54.080Z,76.9721
2023-05-14T09:53:54.960Z,77.6192
2023-05-14T09:54:55.838Z,76.5744
2023-05-14T09:55:56.683Z,77.6266
2023-05-14T09:56:57.539Z,79.0045
2023-05-14T10:01:01.158Z,80.8956
2023-05-14T10:02:02.302Z,82.6365
2023-05-14T10:03:03.208Z,82.0907
2023-05-14T10:04:04.116Z,81.6528
2023-05-14T10:05:05.041Z,80.9272
2023-05-14T10:06:05.889Z,81.2484
2023-05-14T10:08:07.475Z,83.1855
2023-05-14T10:09:08.376Z,82.8657
2023-05-14T10:11:10.244Z,81.3232
2023-05-14T10:12:11.113Z,82.2381
2023-05-14T10:13:33.892Z,81.7990
2023-05-14T10:14:16.475Z,80.1333
2023-05-14T10:15:17.394Z,79.8904
2023-05-14T10:16:18.342Z,82.2695
2023-05-14T10:17:19.886Z,82.7187
2023-05-14T10:18:21.409Z,81.9026
2023-05-14T10:19:23.078Z,81.0845
2023-05-14T10:20:24.246Z,81.6176
2023-05-14T10:21:25.376Z,81.4864
2023-05-14T10:22:26.780Z,79.8784
2023-05-14T10:23:27.986Z,80.3061
2023-05-14T10:24:30.996Z,81.4144
2023-05-14T10:25:31.880Z,81.5662
2023-05-14T10:27:34.092Z,79.2222
2023-05-14T10:28:34.951Z,79.8549
2023-05-14T10:29:36.447Z,80.3417
2023-05-14T10:30:37.335Z,80.8777
2023-05-14T10:31:38.255Z,80.3701
2023-05-14T10:32:39.206Z,81.3650
2023-05-14T10:33:40.114Z,81.2842
2023-05-14T10:34:41.007Z,81.1297
2023-05-14T10:35:42.556Z,81.5304
2023-05-14T10:36:43.986Z,80.4754
2023-05-14T10:37:44.962Z,81.8939
2023-05-14T10:38:47.248Z,81.0755
2023-05-14T10:39:48.328Z,79.7844
2023-05-14T10:41:14.275Z,79.9546
2023-05-14T10:41:50.080Z,79.4711
2023-05-14T10:42:50.963Z,80.0350
2023-05-14T10:43:51.854Z,80.0860
2023-05-14T10:45:54.931Z,78.9309
2023-05-14T10:46:56.659Z,79.6815
2023-05-14T10:47:57.459Z,78.9478
2023-05-14T10:48:58.713Z,80.3422
2023-05-14T10:50:00.214Z,78.0928
2023-05-14T10:51:01.157Z,78.2034
2023-05-14T10:52:02.287Z,77.4309
2023-05-14T10:53:03.140Z,76.5044
2023-05-14T10:54:04.070Z,76.6370
2023-05-14T10:55:04.925Z,73.8657
2023-05-14T10:56:06.554Z,77.6295
2023-05-14T10:57:08.052Z,77.4636
2023-05-14T10:59:08.853Z,76.3442
2023-05-14T11:00:11.019Z,75.8602
2023-05-14T11:01:11.909Z,75.2607
2023-05-14T11:03:14.905Z,75.9806
2023-05-14T11:04:16.097Z,74.6480
2023-05-14T11:05:33.375Z,72.8716
2023-05-14T11:06:17.162Z,71.8209
2023-05-14T11:07:18.026Z,72.2244
2023-05-14T11:08:22.378Z,73.5394
2023-05-14T11:11:22.140Z,69.7574
2023-05-14T11:12:23.071Z,66.3693
2023-05-14T11:13:24.706Z,66.7313
2023-05-14T11:14:25.781Z,65.6499
2023-05-14T11:15:27.722Z,65.7851
2023-05-14T11:16:28.822Z,67.7161
2023-05-14T11:17:29.883Z,66.9915
2023-05-14T11:18:30.795Z,69.8459
2023-05-14T11:19:32.435Z,69.9835
2023-05-14T11:20:33.588Z,72.8887
2023-05-14T11:21:35.223Z,73.0199
2023-05-14T11:22:36.532Z,74.1681
2023-05-14T11:23:37.581Z,76.8724
2023-05-14T11:24:38.460Z,78.1135
2023-05-14T11:26:41.675Z,78.1095
2023-05-14T11:27:42.538Z,78.6738
2023-05-14T11:28:43.450Z,78.1434
2023-05-14T11:29:44.354Z,78.0554
2023-05-14T11:30:45.645Z,79.7271
2023-05-14T11:31:46.539Z,79.3684
2023-05-14T11:32:48.041Z,79.5335
2023-05-14T11:37:53.946Z,77.0381
2023-05-14T11:38:55.022Z,77.4156
2023-05-14T11:42:10.542Z,74.7533
2023-05-14T11:44:01.426Z,75.9130
2023-05-14T11:45:03.152Z,75.7192
2023-05-14T11:46:04.124Z,74.5891
2023-05-14T11:47:05.812Z,76.1039
2023-05-14T11:48:06.815Z,75.5165
2023-05-14T11:49:07.741Z,75.4017
2023-05-14T11:50:19.997Z,75.0211
2023-05-14T11:54:16.661Z,75.7951
2023-05-14T11:55:18.202Z,74.3528
2023-05-14T11:56:19.602Z,74.9864
2023-05-14T11:57:20.503Z,74.2501
2023-05-14T11:58:21.485Z,73.1562
2023-05-14T11:59:24.315Z,73.1398
2023-05-14T12:00:23.759Z,73.1780
2023-05-14T12:01:24.839Z,73.4634
2023-05-14T12:02:26.489Z,71.8434
2023-05-14T12:03:28.103Z,71.1126
2023-05-14T12:05:30.508Z,73.6318
2023-05-14T12:06:32.099Z,72.5570
2023-05-14T12:07:33.599Z,74.1780
2023-05-14T12:08:34.592Z,74.5123
2023-05-14T12:09:35.863Z,77.5594
2023-05-14T12:10:36.920Z,77.0066
2023-05-14T12:11:38.233Z,76.2873
2023-05-14T12:12:39.546Z,76.7293
2023-05-14T12:13:40.784Z,75.8629
2023-05-14T12:14:41.851Z,76.6553
2023-05-14T12:15:42.228Z,77.0697
2023-05-14T12:16:43.256Z,78.1159
2023-05-14T12:17:44.911Z,79.4315
2023-05-14T12:18:45.875Z,80.9005
2023-05-14T12:19:47.598Z,82.4226
2023-05-14T12:20:48.539Z,82.2031
2023-05-14T12:21:49.501Z,82.9330
2023-05-14T12:22:50.554Z,83.3805
2023-05-14T12:23:51.491Z,83.8129
2023-05-14T12:24:52.474Z,84.4168
2023-05-14T12:25:53.422Z,84.4939
2023-05-14T12:26:55.259Z,84.3997
2023-05-14T12:27:56.254Z,85.1552
2023-05-14T12:28:57.210Z,85.1052
2023-05-14T12:30:06.289Z,85.7229
2023-05-14T12:31:00.378Z,86.4624
2023-05-14T12:32:01.325Z,86.3371
2023-05-14T12:33:02.344Z,86.8787
2023-05-14T12:34:03.987Z,86.9235
2023-05-14T12:35:05.022Z,87.5984
2023-05-14T12:36:20.656Z,88.2533
2023-05-14T12:37:07.636Z,88.0634
2023-05-14T12:38:08.572Z,88.5792
2023-05-14T12:39:09.561Z,89.3912
2023-05-14T12:40:10.507Z,89.3688
2023-05-14T12:41:11.551Z,89.5891
2023-05-14T12:42:12.996Z,89.5130
2023-05-14T12:43:13.985Z,90.0660
2023-05-14T12:44:14.984Z,90.0399
2023-05-14T12:45:15.922Z,90.5310
2023-05-14T12:46:16.905Z,90.3367
2023-05-14T12:47:18.045Z,90.4148
2023-05-14T12:48:19.089Z,89.8147
2023-05-14T12:49:20.077Z,89.6269
2023-05-14T12:50:21.173Z,89.0616
2023-05-14T12:51:22.131Z,88.6123
2023-05-14T12:52:36.903Z,90.5570
2023-05-14T12:54:25.095Z,90.1443
2023-05-14T12:57:27.794Z,90.4912
2023-05-14T12:59:29.614Z,90.4327
2023-05-14T13:00:30.568Z,89.7565
2023-05-14T13:01:31.628Z,90.7512
2023-05-14T13:02:32.705Z,89.8836
2023-05-14T13:03:33.674Z,88.4254
2023-05-14T13:04:35.020Z,87.5331
2023-05-14T13:05:35.978Z,89.0362
2023-05-14T13:06:36.990Z,88.5626
2023-05-14T13:07:38.003Z,87.4805
2023-05-14T13:08:39.689Z,88.8514
2023-05-14T13:09:39.002Z,88.5275
2023-05-14T13:10:40.059Z,88.7909
2023-05-14T13:11:41.035Z,86.8118
2023-05-14T13:12:41.975Z,87.1930
2023-05-14T13:13:42.946Z,85.8885
2023-05-14T13:14:43.877Z,82.9616
2023-05-14T13:16:45.630Z,83.4519
2023-05-14T13:17:46.659Z,82.9590
2023-05-14T13:18:47.634Z,84.1074
2023-05-14T13:19:48.627Z,84.5893
2023-05-14T13:21:50.429Z,83.2935
2023-05-14T13:22:51.378Z,83.8124
2023-05-14T13:23:52.368Z,83.3114
2023-05-14T13:24:53.368Z,83.4092
2023-05-14T13:25:54.348Z,82.8408
2023-05-14T13:26:55.287Z,82.8470
2023-05-14T13:27:56.259Z,82.2736
2023-05-14T13:28:57.228Z,81.5979
2023-05-14T13:29:58.864Z,82.8608
2023-05-14T13:31:00.202Z,81.9552
2023-05-14T13:32:01.158Z,81.8648
2023-05-14T13:33:02.183Z,82.4099
2023-05-14T13:35:04.650Z,80.4658
2023-05-14T13:36:06.274Z,80.4073
2023-05-14T13:37:07.270Z,82.2981
2023-05-14T13:39:09.034Z,80.5950
2023-05-14T13:40:09.991Z,80.6211
2023-05-14T13:42:12.735Z,80.6787
2023-05-14T13:43:14.358Z,80.2274
2023-05-14T13:44:15.296Z,78.3416
2023-05-14T13:45:16.913Z,78.0650
2023-05-14T13:46:17.871Z,77.5344
2023-05-14T13:47:18.835Z,77.7990
2023-05-14T13:48:19.765Z,77.1854
2023-05-14T13:49:20.729Z,77.3021
2023-05-14T13:50:21.663Z,75.6056
2023-05-14T13:51:22.624Z,76.7152
2023-05-14T13:52:23.552Z,78.9989
2023-05-14T13:54:26.080Z,81.3774
2023-05-14T13:55:27.719Z,80.5575
2023-05-14T13:58:31.354Z,76.5263
2023-05-14T13:59:32.268Z,74.6497
2023-05-14T14:00:33.164Z,73.9441
2023-05-14T14:01:34.710Z,74.1966